Weather observations for the past three days for
Beaufort Smith Field
| Date | Time (edt) | Wind (kph) | Vis. (km) | Weather | Sky Cond. | Temperature (ºC) | Relative Humidity | Wind Chill (°C) | Heat Index (°C) | Pressure | Precipitation (cm) | ||||||
|---|---|---|---|---|---|---|---|---|---|---|---|---|---|---|---|---|---|
| Air | Dwpt | 6 hour | altimeter (cm) | sea level (mb) | 1 hr | 3 hr | 6 hr | ||||||||||
| Max. | Min. | ||||||||||||||||
| 06 | 15:58 | SW 31 G 44 | 16.09 | Fair | CLR | 23.9 | 18.3 | 71% | 25 | 76.12 | 1014.8 | ||||||
| 06 | 14:58 | SW 30 | 16.09 | Fair | CLR | 24.4 | 18.9 | 72% | 25 | 76.15 | 1015.2 | ||||||
| 06 | 13:58 | SW 26 | 16.09 | Fair | CLR | 24.4 | 18.9 | 25.6 | 21.7 | 72% | 25 | 76.2 | 1015.8 | ||||
| 06 | 12:58 | SW 19 | 16.09 | Partly Cloudy | FEW030 SCT034 | 24.4 | 19.4 | 74% | 25 | 76.23 | 1016.3 | ||||||
| 06 | 11:58 | SW 26 | 16.09 | A Few Clouds | FEW035 | 24.4 | 18.9 | 72% | 25 | 76.25 | 1016.7 | ||||||
| 06 | 10:58 | SW 24 | 16.09 | A Few Clouds | FEW040 | 24.4 | 18.3 | 69% | 25 | 76.28 | 1016.8 | ||||||
| 06 | 09:58 | SW 20 | 16.09 | Fair | CLR | 23.9 | 17.8 | 69% | 25 | 76.28 | 1016.9 | ||||||
| 06 | 08:58 | S 17 | 16.09 | Mostly Cloudy | BKN034 | 22.2 | 17.8 | 76% | 76.25 | 1016.7 | |||||||
| 06 | 07:58 | S 17 | 16.09 | Fair | CLR | 21.7 | 17.8 | 21.7 | 18.3 | 79% | 76.25 | 1016.7 | |||||
| 06 | 06:58 | S 13 | 16.09 | Fair | CLR | 20 | 16.7 | 81% | 76.23 | 1016.3 | |||||||
| 06 | 05:58 | S 9 | 16.09 | Fair | CLR | 18.9 | 16.7 | 87% | 76.23 | 1016.2 | |||||||
| 06 | 04:58 | S 13 | 16.09 | A Few Clouds | FEW037 | 20 | 16.1 | 78% | 76.23 | 1016.1 | |||||||
| 06 | 03:58 | S 15 | 16.09 | Mostly Cloudy | BKN046 | 19.4 | 16.1 | 81% | 76.23 | 1016.2 | |||||||
| 06 | 02:58 | S 17 | 16.09 | Fair | CLR | 19.4 | 15.6 | 79% | 76.23 | 1016.4 | |||||||
| 06 | 01:58 | S 15 | 16.09 | A Few Clouds | FEW042 | 19.4 | 15.6 | 20.6 | 19.4 | 79% | 76.28 | 1016.8 | |||||
| 06 | 00:58 | S 15 | 16.09 | Mostly Cloudy | BKN044 | 20 | 15 | 73% | 76.3 | 1017.3 | |||||||
| 05 | 23:58 | S 19 | 16.09 | A Few Clouds | FEW038 | 20 | 15 | 73% | 76.35 | 1017.9 | |||||||
| 05 | 22:58 | S 20 | 16.09 | Fair | CLR | 20 | 15 | 73% | 76.38 | 1018.1 | |||||||
| 05 | 21:58 | S 15 | 16.09 | Fair | CLR | 20 | 15 | 73% | 76.35 | 1018.0 | |||||||
| 05 | 20:58 | S 19 | 16.09 | Fair | CLR | 20 | 15 | 73% | 76.33 | 1017.7 | |||||||
| 05 | 19:58 | S 17 | 16.09 | Mostly Cloudy | BKN037 BKN046 | 20.6 | 15.6 | 23.9 | 20.6 | 73% | 76.33 | 1017.6 | |||||
| 05 | 18:58 | S 15 | 16.09 | Overcast | SCT033 OVC044 | 21.1 | 15.6 | 71% | 76.33 | 1017.5 | |||||||
| 05 | 17:58 | S 20 | 16.09 | Fair | CLR | 22.2 | 15 | 64% | 76.3 | 1017.4 | |||||||
| 05 | 16:58 | S 20 | 16.09 | Fair | CLR | 22.2 | 15 | 64% | 76.33 | 1017.7 | |||||||
| 05 | 15:58 | S 22 | 16.09 | Fair | CLR | 23.3 | 15 | 60% | 76.35 | 1018.1 | |||||||
| 05 | 14:58 | S 24 | 16.09 | A Few Clouds | FEW042 | 22.8 | 14.4 | 59% | 76.4 | 1018.6 | |||||||
| 05 | 13:58 | S 22 | 16.09 | A Few Clouds | FEW040 | 23.3 | 14.4 | 23.9 | 20 | 57% | 76.43 | 1018.8 | |||||
| 05 | 12:58 | S 17 | 16.09 | A Few Clouds | FEW035 | 22.8 | 14.4 | 59% | 76.45 | 1019.1 | |||||||
| 05 | 11:58 | S 13 | 16.09 | A Few Clouds | FEW041 | 22.8 | 13.9 | 57% | 76.45 | 1019.2 | |||||||
| 05 | 10:58 | SW 13 | 16.09 | Fair | CLR | 22.8 | 13.9 | 57% | 76.45 | 1019.3 | |||||||
| 05 | 09:58 | W 15 | 16.09 | Fair | CLR | 22.8 | 12.8 | 53% | 76.43 | 1019.0 | |||||||
| 05 | 08:58 | SW 11 | 16.09 | Fair | CLR | 21.7 | 13.3 | 59% | 76.43 | 1018.9 | |||||||
| 05 | 07:58 | SW 7 | 16.09 | Fair | CLR | 20 | 14.4 | 20 | 15.6 | 70% | 76.43 | 1018.8 | |||||
| 05 | 06:58 | S 6 | 16.09 | Fair | CLR | 17.2 | 14.4 | 84% | 76.38 | 1018.3 | |||||||
| 05 | 05:58 | S 6 | 16.09 | Fair | CLR | 16.7 | 13.9 | 84% | 76.33 | 1017.7 | |||||||
| 05 | 04:58 | SW 6 | 16.09 | Fair | CLR | 16.7 | 13.9 | 84% | 76.3 | 1017.3 | |||||||
| 05 | 03:58 | SW 9 | 16.09 | Fair | CLR | 17.2 | 13.9 | 81% | 76.28 | 1017.1 | |||||||
| 05 | 02:58 | SW 11 | 16.09 | Fair | CLR | 17.8 | 13.9 | 78% | 76.28 | 1017.0 | |||||||
| 05 | 01:58 | SW 13 | 16.09 | Fair | CLR | 18.3 | 14.4 | 19.4 | 17.8 | 78% | 76.3 | 1017.3 | |||||
| 05 | 00:58 | SW 15 | 16.09 | Fair | CLR | 18.3 | 13.9 | 76% | 76.33 | 1017.5 | |||||||
| 04 | 23:58 | SW 19 | 16.09 | Fair | CLR | 18.9 | 12.8 | 68% | 76.33 | 1017.6 | |||||||
| 04 | 22:58 | SW 19 | 16.09 | Fair | CLR | 18.9 | 12.8 | 68% | 76.35 | 1017.8 | |||||||
| 04 | 21:58 | SW 19 | 16.09 | Fair | CLR | 18.9 | 12.2 | 65% | 76.35 | 1017.8 | |||||||
| 04 | 19:58 | SW 24 | 16.09 | Fair | CLR | 19.4 | 10.6 | 22.2 | 19.4 | 57% | 76.28 | 1016.7 | |||||
| 04 | 18:58 | S 22 | 16.09 | Fair | CLR | 20 | 10.6 | 55% | 76.25 | 1016.5 | |||||||
| 04 | 17:58 | S 26 | 16.09 | Fair | CLR | 21.1 | 11.1 | 53% | 76.25 | 1016.6 | |||||||
| 04 | 16:58 | S 28 G 39 | 16.09 | Fair | CLR | 21.7 | 11.1 | 51% | 76.28 | 1016.8 | |||||||
| 04 | 15:58 | S 31 | 16.09 | Fair | CLR | 21.7 | 10.6 | 49% | 76.3 | 1017.2 | |||||||
| 04 | 14:58 | S 28 | 16.09 | Fair | CLR | 21.7 | 10.6 | 49% | 76.33 | 1017.6 | |||||||
| 04 | 13:58 | S 24 G 37 | 16.09 | Fair | CLR | 21.7 | 11.1 | 21.7 | 16.1 | 51% | 76.35 | 1018.0 | |||||
| 04 | 12:58 | S 22 | 16.09 | Fair | CLR | 21.1 | 11.7 | 55% | 76.38 | 1018.4 | |||||||
| 04 | 11:58 | SW 20 G 31 | 16.09 | Fair | CLR | 20.6 | 11.7 | 57% | 76.4 | 1018.7 | |||||||
| 04 | 10:58 | S 19 | 16.09 | Fair | CLR | 20 | 11.7 | 59% | 76.4 | 1018.7 | |||||||
| 04 | 09:58 | W 13 | 16.09 | Fair | CLR | 19.4 | 11.1 | 59% | 76.4 | 1018.7 | |||||||
| 04 | 08:58 | Vrbl 6 | 16.09 | Fair | CLR | 17.8 | 12.8 | 73% | 76.43 | 1018.9 | |||||||
| 04 | 07:58 | Calm | 16.09 | Fair | CLR | 16.1 | 12.2 | 16.1 | 8.9 | 78% | 76.43 | 1019.1 | |||||
| 04 | 06:58 | Calm | 16.09 | Fair | CLR | 10 | 9.4 | 96% | 76.43 | 1019.0 | |||||||
| 04 | 05:58 | Calm | 16.09 | Fair | CLR | 9.4 | 8.9 | 97% | 76.4 | 1018.8 | |||||||
| 04 | 04:58 | Calm | 16.09 | Fair | CLR | 10 | 8.9 | 93% | 76.43 | 1018.9 | |||||||
| 04 | 03:58 | Calm | 16.09 | Fair | CLR | 10.6 | 9.4 | 92% | 76.43 | 1018.9 | |||||||
| 04 | 02:58 | Calm | 16.09 | Fair | CLR | 13.3 | 10.6 | 84% | 76.4 | 1018.7 | |||||||
| 04 | 01:58 | SW 11 | 16.09 | A Few Clouds | FEW044 | 15.6 | 8.9 | 16.7 | 12.2 | 65% | 76.43 | 1018.8 | |||||
| 04 | 00:58 | SW 13 | 16.09 | Fair | CLR | 15 | 8.3 | 64% | 76.43 | 1019.0 | |||||||
| 03 | 23:58 | SW 9 | 16.09 | Fair | CLR | 15 | 7.8 | 62% | 76.43 | 1019.1 | |||||||
| 03 | 22:58 | SW 13 | 16.09 | Fair | CLR | 15 | 7.2 | 60% | 76.43 | 1019.0 | |||||||
| 03 | 21:58 | SW 13 | 16.09 | Fair | CLR | 14.4 | 8.3 | 67% | 76.4 | 1018.8 | |||||||
| 03 | 20:58 | Calm | 16.09 | Fair | CLR | 13.9 | 7.8 | 67% | 76.35 | 1017.9 | |||||||
| 03 | 19:58 | Calm | 16.09 | Fair | CLR | 16.7 | 5.6 | 18.9 | 15.6 | 48% | 76.3 | 1017.1 | |||||
| 03 | 18:58 | SE 11 | 16.09 | Fair | CLR | 17.2 | 4.4 | 43% | 76.28 | 1016.9 | |||||||
| 03 | 17:58 | E 6 | 16.09 | Fair | CLR | 17.8 | 3.9 | 40% | 76.25 | 1016.7 | |||||||
| 03 | 16:58 | N 15 | 16.09 | Fair | CLR | 18.9 | 2.8 | 34% | 76.25 | 1016.7 | |||||||
| Date | Time (edt) | Wind (kph) | Vis. (km) | Weather | Sky Cond. | Air | Dwpt | Max. | Min. | Relative Humidity | Wind Chill (°C) | Heat Index (°C) | altimeter (cm) | sea level (mb) | 1 hr | 3 hr | 6 hr |
| 6 hour | |||||||||||||||||
| Temperature (ºC) | Pressure | Precipitation (cm) | |||||||||||||||